createdAt,value
2023-03-27T00:01:22.907Z,1
2023-03-27T00:03:06.299Z,1
2023-03-27T00:04:49.685Z,2
2023-03-27T00:06:33.388Z,1
2023-03-27T00:08:16.803Z,1
2023-03-27T00:10:00.191Z,0
2023-03-27T00:11:43.597Z,1
2023-03-27T00:13:26.979Z,1
2023-03-27T00:15:10.390Z,1
2023-03-27T00:16:53.787Z,1
2023-03-27T00:18:37.173Z,1
2023-03-27T00:20:20.895Z,1
2023-03-27T00:22:04.281Z,1
2023-03-27T00:23:47.675Z,1
2023-03-27T00:25:31.073Z,1
2023-03-27T00:27:14.499Z,1
2023-03-27T00:28:57.860Z,1
2023-03-27T00:30:41.269Z,2
2023-03-27T00:32:24.648Z,1
2023-03-27T00:35:51.135Z,1
2023-03-27T00:37:34.510Z,1
2023-03-27T00:39:17.914Z,1
2023-03-27T00:41:01.311Z,1
2023-03-27T00:42:44.717Z,0
2023-03-27T00:44:28.214Z,1
2023-03-27T00:46:11.502Z,2
2023-03-27T00:47:54.913Z,1
2023-03-27T00:49:38.612Z,0
2023-03-27T00:51:22.003Z,1
2023-03-27T00:53:05.401Z,1
2023-03-27T00:54:48.799Z,1
2023-03-27T00:56:32.197Z,0
2023-03-27T00:58:15.583Z,1
2023-03-27T00:59:58.974Z,1
2023-03-27T01:01:42.375Z,1
2023-03-27T01:03:26.087Z,0
2023-03-27T01:05:09.486Z,2
2023-03-27T01:06:52.868Z,2
2023-03-27T01:08:36.269Z,1
2023-03-27T01:10:19.670Z,1
2023-03-27T01:12:03.063Z,1
2023-03-27T01:13:46.475Z,1
2023-03-27T01:15:29.866Z,1
2023-03-27T01:17:13.562Z,1
2023-03-27T01:18:56.963Z,1
2023-03-27T01:20:40.353Z,1
2023-03-27T01:22:23.766Z,1
2023-03-27T01:24:07.147Z,1
2023-03-27T01:25:50.541Z,1
2023-03-27T01:27:33.945Z,1
2023-03-27T01:29:17.327Z,1
2023-03-27T01:31:01.048Z,1
2023-03-27T01:32:44.468Z,1
2023-03-27T01:34:27.818Z,1
2023-03-27T01:36:11.227Z,1
2023-03-27T01:37:54.627Z,1
2023-03-27T01:39:38.018Z,1
2023-03-27T01:41:21.425Z,1
2023-03-27T01:43:04.816Z,1
2023-03-27T01:44:48.543Z,1
2023-03-27T01:46:31.914Z,0
2023-03-27T01:48:15.317Z,1
2023-03-27T01:49:58.716Z,1
2023-03-27T01:51:42.091Z,1
2023-03-27T01:53:25.511Z,1
2023-03-27T01:55:08.898Z,1
2023-03-27T01:56:52.298Z,1
2023-03-27T02:00:18.754Z,1
2023-03-27T02:02:02.167Z,1
2023-03-27T02:03:45.560Z,1
2023-03-27T02:05:28.963Z,1
2023-03-27T02:07:12.354Z,1
2023-03-27T02:08:55.741Z,0
2023-03-27T02:10:39.136Z,1
2023-03-27T02:12:22.546Z,2
2023-03-27T02:14:06.249Z,1
2023-03-27T02:15:49.636Z,1
2023-03-27T02:17:33.032Z,1
2023-03-27T02:19:16.440Z,1
2023-03-27T02:20:59.818Z,1
2023-03-27T02:22:43.219Z,1
2023-03-27T02:24:26.620Z,0
2023-03-27T02:26:10.025Z,1
2023-03-27T02:27:53.727Z,1
2023-03-27T02:29:37.131Z,1
2023-03-27T02:31:20.517Z,0
2023-03-27T02:33:03.901Z,1
2023-03-27T02:34:47.297Z,1
2023-03-27T02:36:30.708Z,1
2023-03-27T02:38:14.102Z,1
2023-03-27T02:39:57.482Z,1
2023-03-27T02:43:23.952Z,1
2023-03-27T02:45:07.367Z,1
2023-03-27T02:46:50.762Z,1
2023-03-27T02:48:34.139Z,1
2023-03-27T02:50:17.546Z,0
2023-03-27T02:52:00.938Z,0
2023-03-27T02:53:44.331Z,1
2023-03-27T02:55:27.760Z,1
2023-03-27T02:58:54.212Z,0
2023-03-27T03:00:37.617Z,1
2023-03-27T03:02:21.026Z,1
2023-03-27T03:04:04.429Z,1
2023-03-27T03:05:47.797Z,1
2023-03-27T03:07:31.205Z,1
2023-03-27T03:09:14.591Z,1
2023-03-27T03:10:58.000Z,1
2023-03-27T03:16:07.227Z,1
2023-03-27T03:17:50.630Z,0
2023-03-27T03:19:34.027Z,1
2023-03-27T03:21:17.421Z,1
2023-03-27T03:23:00.815Z,1
2023-03-27T03:24:44.219Z,0
2023-03-27T03:26:27.616Z,1
2023-03-27T03:28:11.014Z,1
2023-03-27T03:31:37.506Z,1
2023-03-27T03:33:20.900Z,1
2023-03-27T03:35:04.266Z,1
2023-03-27T03:36:47.676Z,1
2023-03-27T03:38:31.074Z,1
2023-03-27T03:40:14.474Z,1
2023-03-27T03:41:57.866Z,1
2023-03-27T03:43:41.262Z,1
2023-03-27T03:47:07.727Z,1
2023-03-27T03:48:51.125Z,1
2023-03-27T03:50:34.518Z,1
2023-03-27T03:52:17.921Z,1
2023-03-27T03:54:01.342Z,1
2023-03-27T03:55:44.712Z,1
2023-03-27T03:57:28.096Z,1
2023-03-27T03:59:11.507Z,1
2023-03-27T04:02:37.977Z,2
2023-03-27T04:04:21.385Z,1
2023-03-27T04:06:04.754Z,1
2023-03-27T04:07:48.168Z,0
2023-03-27T04:09:31.564Z,1
2023-03-27T04:11:14.929Z,2
2023-03-27T04:12:58.342Z,1
2023-03-27T04:14:41.750Z,1
2023-03-27T04:19:50.989Z,1
2023-03-27T04:21:34.379Z,1
2023-03-27T04:23:17.785Z,1
2023-03-27T04:25:01.173Z,1
2023-03-27T04:26:44.560Z,1
2023-03-27T04:28:27.952Z,1
2023-03-27T04:30:11.381Z,1
2023-03-27T04:31:54.750Z,1
2023-03-27T04:33:38.460Z,1
2023-03-27T04:35:21.851Z,1
2023-03-27T04:37:05.259Z,1
2023-03-27T04:38:48.644Z,1
2023-03-27T04:40:32.060Z,1
2023-03-27T04:42:15.566Z,1
2023-03-27T04:43:58.829Z,0
2023-03-27T04:45:42.237Z,1
2023-03-27T04:49:08.701Z,1
2023-03-27T04:50:52.116Z,2
2023-03-27T04:52:35.504Z,1
2023-03-27T04:54:18.892Z,1
2023-03-27T04:56:02.292Z,1
2023-03-27T04:57:45.697Z,1
2023-03-27T04:59:29.093Z,2
2023-03-27T05:01:12.490Z,1
2023-03-27T05:04:38.971Z,1
2023-03-27T05:06:22.388Z,1
2023-03-27T05:08:05.739Z,1
2023-03-27T05:09:49.149Z,1
2023-03-27T05:11:32.560Z,0
2023-03-27T05:13:15.952Z,1
2023-03-27T05:14:59.330Z,1
2023-03-27T05:16:42.730Z,1
2023-03-27T05:18:26.440Z,1
2023-03-27T05:20:09.874Z,1
2023-03-27T05:21:53.229Z,1
2023-03-27T05:23:36.632Z,1
2023-03-27T05:25:20.013Z,1
2023-03-27T05:27:03.465Z,0
2023-03-27T05:28:46.802Z,0
2023-03-27T05:30:30.232Z,1
2023-03-27T05:33:56.689Z,1
2023-03-27T05:35:40.065Z,1
2023-03-27T05:37:23.477Z,1
2023-03-27T05:39:06.861Z,1
2023-03-27T05:40:50.278Z,1
2023-03-27T05:42:33.706Z,1
2023-03-27T05:44:17.089Z,1
2023-03-27T05:46:00.494Z,1
2023-03-27T05:49:27.007Z,1
2023-03-27T05:51:10.508Z,1
2023-03-27T05:52:53.758Z,1
2023-03-27T05:54:37.136Z,0
2023-03-27T05:56:20.547Z,1
2023-03-27T05:58:03.963Z,0
2023-03-27T05:59:47.376Z,1
2023-03-27T06:01:30.719Z,1
2023-03-27T06:04:57.193Z,1
2023-03-27T06:06:40.609Z,1
2023-03-27T06:08:23.974Z,2
2023-03-27T06:10:07.384Z,1
2023-03-27T06:11:50.770Z,1
2023-03-27T06:13:34.153Z,1
2023-03-27T06:15:17.542Z,1
2023-03-27T06:17:00.959Z,1
2023-03-27T06:18:44.645Z,1
2023-03-27T06:20:28.084Z,1
2023-03-27T06:22:11.438Z,1
2023-03-27T06:23:54.845Z,2
2023-03-27T06:25:38.246Z,1
2023-03-27T06:27:21.825Z,1
2023-03-27T06:29:05.045Z,2
2023-03-27T06:30:48.535Z,1
2023-03-27T06:32:32.133Z,1
2023-03-27T06:34:15.524Z,1
2023-03-27T06:35:58.936Z,1
2023-03-27T06:37:42.317Z,2
2023-03-27T06:39:25.777Z,1
2023-03-27T06:41:09.131Z,1
2023-03-27T06:42:52.516Z,1
2023-03-27T06:44:35.913Z,1
2023-03-27T06:48:02.395Z,2
2023-03-27T06:49:45.823Z,2
2023-03-27T06:51:29.172Z,1
2023-03-27T06:53:12.564Z,1
2023-03-27T06:54:55.970Z,2
2023-03-27T06:56:39.361Z,2
2023-03-27T06:58:22.767Z,2
2023-03-27T07:03:32.080Z,1
2023-03-27T07:05:15.411Z,1
2023-03-27T07:06:58.789Z,1
2023-03-27T07:08:42.197Z,2
2023-03-27T07:10:25.580Z,2
2023-03-27T07:12:08.993Z,2
2023-03-27T07:13:52.380Z,14
2023-03-27T07:15:35.777Z,15
2023-03-27T07:19:02.255Z,37
2023-03-27T07:20:45.642Z,30
2023-03-27T07:22:29.043Z,31
2023-03-27T07:24:12.457Z,41
2023-03-27T07:25:55.830Z,46
2023-03-27T07:27:39.210Z,35
2023-03-27T07:29:22.684Z,39
2023-03-27T07:31:06.072Z,42
2023-03-27T07:32:49.769Z,35
2023-03-27T07:34:33.155Z,34
2023-03-27T07:36:16.616Z,31
2023-03-27T07:38:00.120Z,34
2023-03-27T07:39:43.344Z,41
2023-03-27T07:41:26.811Z,46
2023-03-27T07:43:10.198Z,49
2023-03-27T07:44:53.602Z,49
2023-03-27T07:48:20.083Z,46
2023-03-27T07:50:03.417Z,52
2023-03-27T07:51:46.850Z,58
2023-03-27T07:53:30.183Z,62
2023-03-27T07:55:13.705Z,74
2023-03-27T07:56:56.992Z,83
2023-03-27T07:58:40.461Z,98
2023-03-27T08:03:49.628Z,95
2023-03-27T08:05:32.997Z,116
2023-03-27T08:07:16.385Z,133
2023-03-27T08:08:59.832Z,123
2023-03-27T08:10:43.192Z,119
2023-03-27T08:12:26.598Z,106
2023-03-27T08:14:10.000Z,91
2023-03-27T08:15:53.403Z,101
2023-03-27T08:19:19.852Z,99
2023-03-27T08:21:03.244Z,173
2023-03-27T08:22:46.673Z,126
2023-03-27T08:24:30.057Z,214
2023-03-27T08:26:13.425Z,267
2023-03-27T08:27:56.834Z,123
2023-03-27T08:29:40.222Z,391
2023-03-27T08:31:23.600Z,178
2023-03-27T08:34:50.123Z,398
2023-03-27T08:36:33.525Z,121
2023-03-27T08:38:16.907Z,196
2023-03-27T08:40:00.313Z,273
2023-03-27T08:41:43.667Z,117
2023-03-27T08:43:27.111Z,324
2023-03-27T08:45:10.470Z,127
2023-03-27T08:46:53.898Z,128
2023-03-27T08:50:20.359Z,137
2023-03-27T08:52:03.752Z,90
2023-03-27T08:53:47.168Z,445
2023-03-27T08:55:30.546Z,142
2023-03-27T08:57:13.950Z,98
2023-03-27T08:58:57.347Z,468
2023-03-27T09:00:40.715Z,422
2023-03-27T09:02:24.116Z,140
2023-03-27T09:04:07.823Z,76
2023-03-27T09:05:51.282Z,440
2023-03-27T09:07:34.627Z,164
2023-03-27T09:09:18.025Z,94
2023-03-27T09:11:01.397Z,64
2023-03-27T09:12:44.831Z,109
2023-03-27T09:14:28.198Z,336
2023-03-27T09:16:11.589Z,83
2023-03-27T09:19:38.075Z,95
2023-03-27T09:21:21.448Z,778
2023-03-27T09:23:04.865Z,342
2023-03-27T09:24:48.251Z,778
2023-03-27T09:26:31.660Z,356
2023-03-27T09:28:15.058Z,217
2023-03-27T09:29:58.438Z,382
2023-03-27T09:35:07.676Z,776
2023-03-27T09:36:51.092Z,778
2023-03-27T09:38:34.468Z,272
2023-03-27T09:40:17.869Z,333
2023-03-27T09:42:01.275Z,778
2023-03-27T09:43:44.708Z,778
2023-03-27T09:45:28.052Z,778
2023-03-27T09:50:37.299Z,779
2023-03-27T09:52:20.718Z,778
2023-03-27T09:54:04.151Z,778
2023-03-27T09:55:47.536Z,778
2023-03-27T09:57:30.958Z,316
2023-03-27T09:59:14.650Z,322
2023-03-27T10:00:57.733Z,285
2023-03-27T10:06:07.062Z,778
2023-03-27T10:07:50.370Z,778
2023-03-27T10:09:33.832Z,307
2023-03-27T10:11:17.138Z,618
2023-03-27T10:13:00.512Z,379
2023-03-27T10:14:43.918Z,778
2023-03-27T10:16:27.319Z,361
2023-03-27T10:21:36.605Z,293
2023-03-27T10:23:19.966Z,289
2023-03-27T10:25:03.342Z,361
2023-03-27T10:26:46.752Z,778
2023-03-27T10:28:30.274Z,778
2023-03-27T10:30:13.529Z,256
2023-03-27T10:31:56.944Z,299
2023-03-27T10:33:40.305Z,777
2023-03-27T10:37:06.818Z,455
2023-03-27T10:38:50.382Z,304
2023-03-27T10:40:33.722Z,209
2023-03-27T10:42:17.108Z,200
2023-03-27T10:44:00.521Z,162
2023-03-27T10:45:43.780Z,158
2023-03-27T10:47:27.369Z,187
2023-03-27T10:49:10.587Z,245
2023-03-27T10:50:54.376Z,778
2023-03-27T10:52:37.752Z,291
2023-03-27T10:54:21.079Z,205
2023-03-27T10:56:04.437Z,201
2023-03-27T10:57:47.863Z,196
2023-03-27T10:59:31.345Z,196
2023-03-27T11:01:14.824Z,204
2023-03-27T11:02:58.054Z,777
2023-03-27T11:06:24.584Z,778
2023-03-27T11:08:07.904Z,778
2023-03-27T11:09:51.288Z,777
2023-03-27T11:11:34.695Z,778
2023-03-27T11:13:18.101Z,307
2023-03-27T11:15:01.499Z,778
2023-03-27T11:16:44.902Z,498
2023-03-27T11:18:28.268Z,776
2023-03-27T11:21:54.777Z,441
2023-03-27T11:23:38.155Z,258
2023-03-27T11:25:21.546Z,237
2023-03-27T11:27:04.935Z,778
2023-03-27T11:28:50.895Z,778
2023-03-27T11:30:31.722Z,777
2023-03-27T11:32:15.118Z,778
2023-03-27T11:33:58.545Z,767
2023-03-27T11:35:42.230Z,778
2023-03-27T11:39:09.016Z,455
2023-03-27T11:40:52.404Z,778
2023-03-27T11:42:35.808Z,778
2023-03-27T11:44:19.200Z,779
2023-03-27T11:46:02.638Z,778
2023-03-27T11:47:46.005Z,767
2023-03-27T11:49:29.708Z,778
2023-03-27T11:51:13.096Z,401
2023-03-27T11:52:56.497Z,386
2023-03-27T11:54:39.899Z,684
2023-03-27T11:56:23.291Z,418
2023-03-27T11:58:06.697Z,361
2023-03-27T11:59:50.086Z,325
2023-03-27T12:04:59.332Z,251
2023-03-27T12:06:42.707Z,287
2023-03-27T12:08:26.108Z,411
2023-03-27T12:10:09.500Z,336
2023-03-27T12:11:52.913Z,548
2023-03-27T12:13:36.385Z,462
2023-03-27T12:15:19.779Z,670
2023-03-27T12:17:03.164Z,285
2023-03-27T12:18:46.887Z,342
2023-03-27T12:20:30.257Z,292
2023-03-27T12:22:13.628Z,265
2023-03-27T12:23:57.124Z,211
2023-03-27T12:25:40.422Z,166
2023-03-27T12:27:23.810Z,117
2023-03-27T12:29:07.209Z,120
2023-03-27T12:30:50.614Z,115
2023-03-27T12:32:34.357Z,125
2023-03-27T12:34:17.724Z,360
2023-03-27T12:36:01.097Z,386
2023-03-27T12:37:44.468Z,395
2023-03-27T12:39:27.861Z,260
2023-03-27T12:41:11.246Z,184
2023-03-27T12:42:54.680Z,259
2023-03-27T12:44:38.197Z,182
2023-03-27T12:46:21.785Z,234
2023-03-27T12:48:05.130Z,164
2023-03-27T12:49:48.551Z,333
2023-03-27T12:51:31.950Z,326
2023-03-27T12:53:15.317Z,170
2023-03-27T12:54:58.712Z,191
2023-03-27T12:56:42.166Z,381
2023-03-27T12:58:25.511Z,362
2023-03-27T13:01:52.011Z,343
2023-03-27T13:03:35.423Z,194
2023-03-27T13:05:18.798Z,141
2023-03-27T13:07:02.208Z,132
2023-03-27T13:08:45.577Z,119
2023-03-27T13:10:28.977Z,106
2023-03-27T13:12:12.372Z,96
2023-03-27T13:13:55.745Z,84
2023-03-27T13:15:39.508Z,71
2023-03-27T13:17:22.860Z,57
2023-03-27T13:19:06.263Z,50
2023-03-27T13:20:49.650Z,45
2023-03-27T13:22:33.084Z,42
2023-03-27T13:24:16.470Z,37
2023-03-27T13:25:59.835Z,47
2023-03-27T13:27:43.237Z,54
2023-03-27T13:32:52.554Z,53
2023-03-27T13:34:35.918Z,45
2023-03-27T13:36:19.287Z,33
2023-03-27T13:38:02.765Z,32
2023-03-27T13:39:46.086Z,36
2023-03-27T13:41:29.462Z,44
2023-03-27T13:43:12.881Z,63
2023-03-27T13:48:22.093Z,121
2023-03-27T13:50:05.520Z,120
2023-03-27T13:51:48.941Z,115
2023-03-27T13:53:32.293Z,105
2023-03-27T13:55:15.686Z,95
2023-03-27T13:56:59.082Z,82
2023-03-27T13:58:42.474Z,74
2023-03-27T14:00:25.892Z,67
2023-03-27T14:02:09.566Z,60
2023-03-27T14:03:52.986Z,59
2023-03-27T14:05:36.372Z,60
2023-03-27T14:07:19.814Z,53
2023-03-27T14:09:03.153Z,89
2023-03-27T14:10:46.562Z,265
2023-03-27T14:12:29.957Z,243
2023-03-27T14:14:13.339Z,173
2023-03-27T14:17:39.828Z,301
2023-03-27T14:19:23.201Z,300
2023-03-27T14:21:06.607Z,260
2023-03-27T14:22:50.007Z,231
2023-03-27T14:24:33.418Z,147
2023-03-27T14:26:16.785Z,126
2023-03-27T14:28:00.184Z,132
2023-03-27T14:29:43.575Z,146
2023-03-27T14:31:27.295Z,167
2023-03-27T14:33:10.691Z,193
2023-03-27T14:34:54.096Z,215
2023-03-27T14:36:37.474Z,242
2023-03-27T14:38:20.859Z,347
2023-03-27T14:40:04.280Z,371
2023-03-27T14:41:47.698Z,400
2023-03-27T14:43:31.060Z,379
2023-03-27T14:46:57.533Z,331
2023-03-27T14:48:40.944Z,141
2023-03-27T14:50:24.328Z,95
2023-03-27T14:52:07.735Z,99
2023-03-27T14:53:51.125Z,106
2023-03-27T14:55:34.519Z,116
2023-03-27T14:57:17.919Z,132
2023-03-27T14:59:01.304Z,143
2023-03-27T15:02:27.794Z,143
2023-03-27T15:04:11.177Z,153
2023-03-27T15:05:54.578Z,162
2023-03-27T15:07:37.981Z,176
2023-03-27T15:09:21.380Z,206
2023-03-27T15:11:04.766Z,363
2023-03-27T15:12:48.156Z,376
2023-03-27T15:14:31.573Z,206
2023-03-27T15:17:58.035Z,202
2023-03-27T15:19:41.412Z,187
2023-03-27T15:21:24.817Z,305
2023-03-27T15:23:08.220Z,395
2023-03-27T15:24:51.738Z,546
2023-03-27T15:26:35.154Z,597
2023-03-27T15:28:18.466Z,268
2023-03-27T15:30:01.861Z,244
2023-03-27T15:33:28.263Z,628
2023-03-27T15:35:11.668Z,709
2023-03-27T15:36:55.070Z,223
2023-03-27T15:38:38.461Z,184
2023-03-27T15:40:21.856Z,598
2023-03-27T15:43:48.660Z,132
2023-03-27T15:45:32.057Z,157
2023-03-27T15:47:15.790Z,206
2023-03-27T15:48:59.204Z,165
2023-03-27T15:50:42.581Z,111
2023-03-27T15:52:25.978Z,130
2023-03-27T15:54:09.396Z,108
2023-03-27T15:55:52.812Z,147
2023-03-27T15:57:36.220Z,165
2023-03-27T15:59:19.562Z,777
2023-03-27T16:02:45.999Z,778
2023-03-27T16:04:29.385Z,777
2023-03-27T16:06:12.819Z,778
2023-03-27T16:07:56.323Z,778
2023-03-27T16:09:39.576Z,777
2023-03-27T16:11:22.959Z,778
2023-03-27T16:13:06.384Z,777
2023-03-27T16:14:49.841Z,775
2023-03-27T16:16:33.478Z,437
2023-03-27T16:18:16.882Z,777
2023-03-27T16:20:00.279Z,778
2023-03-27T16:21:43.672Z,778
2023-03-27T16:23:27.093Z,715
2023-03-27T16:25:10.464Z,778
2023-03-27T16:26:53.850Z,777
2023-03-27T16:28:37.274Z,116
2023-03-27T16:32:03.736Z,85
2023-03-27T16:33:47.105Z,52
2023-03-27T16:35:30.499Z,40
2023-03-27T16:37:13.887Z,41
2023-03-27T16:38:57.302Z,48
2023-03-27T16:40:40.705Z,61
2023-03-27T16:42:24.090Z,80
2023-03-27T16:44:07.476Z,358
2023-03-27T16:47:33.969Z,407
2023-03-27T16:49:17.351Z,173
2023-03-27T16:51:00.806Z,111
2023-03-27T16:52:44.147Z,69
2023-03-27T16:54:27.546Z,53
2023-03-27T16:56:10.937Z,46
2023-03-27T16:57:54.339Z,38
2023-03-27T16:59:37.720Z,35
2023-03-27T17:03:04.194Z,29
2023-03-27T17:04:47.586Z,29
2023-03-27T17:06:30.987Z,32
2023-03-27T17:08:14.403Z,35
2023-03-27T17:09:57.772Z,36
2023-03-27T17:11:41.265Z,36
2023-03-27T17:13:24.584Z,35
2023-03-27T17:15:07.973Z,41
2023-03-27T17:18:34.449Z,61
2023-03-27T17:20:17.832Z,57
2023-03-27T17:22:01.256Z,46
2023-03-27T17:23:44.635Z,43
2023-03-27T17:25:28.037Z,41
2023-03-27T17:27:11.425Z,39
2023-03-27T17:28:54.814Z,31
2023-03-27T17:30:38.224Z,11
2023-03-27T17:34:04.685Z,8
2023-03-27T17:35:48.099Z,7
2023-03-27T17:37:31.482Z,5
2023-03-27T17:39:14.879Z,4
2023-03-27T17:40:58.291Z,4
2023-03-27T17:42:41.673Z,4
2023-03-27T17:44:25.077Z,3
2023-03-27T17:46:08.466Z,3
2023-03-27T17:51:17.763Z,2
2023-03-27T17:53:01.173Z,2
2023-03-27T17:54:44.565Z,2
2023-03-27T17:56:27.936Z,2
2023-03-27T17:58:11.342Z,1
2023-03-27T17:59:54.686Z,562
2023-03-27T18:01:38.075Z,1
2023-03-27T18:03:21.486Z,1
2023-03-27T18:05:05.202Z,1
2023-03-27T18:06:48.593Z,1
2023-03-27T18:08:31.984Z,1
2023-03-27T18:11:58.775Z,1
2023-03-27T18:13:42.187Z,1
2023-03-27T18:15:25.554Z,1
2023-03-27T18:17:08.962Z,1
2023-03-27T18:20:35.438Z,1
2023-03-27T18:22:18.826Z,1
2023-03-27T18:24:02.244Z,1
2023-03-27T18:25:45.634Z,1
2023-03-27T18:27:29.017Z,1
2023-03-27T18:29:12.437Z,1
2023-03-27T18:30:55.869Z,1
2023-03-27T18:32:39.239Z,1
2023-03-27T18:36:05.706Z,0
2023-03-27T18:37:49.103Z,1
2023-03-27T18:39:32.457Z,1
2023-03-27T18:41:15.925Z,1
2023-03-27T18:42:59.323Z,1
2023-03-27T18:44:42.718Z,1
2023-03-27T18:46:26.115Z,1
2023-03-27T18:48:09.529Z,1
2023-03-27T18:49:53.203Z,2
2023-03-27T18:51:36.701Z,1
2023-03-27T18:53:19.990Z,1
2023-03-27T18:55:03.414Z,1
2023-03-27T18:56:46.783Z,1
2023-03-27T18:58:30.206Z,9
2023-03-27T19:00:13.641Z,8
2023-03-27T19:01:57.067Z,7
2023-03-27T19:07:06.273Z,8
2023-03-27T19:08:49.609Z,8
2023-03-27T19:10:33.146Z,8
2023-03-27T19:12:16.424Z,8
2023-03-27T19:13:59.800Z,8
2023-03-27T19:15:43.186Z,9
2023-03-27T19:17:26.567Z,8
2023-03-27T19:19:09.947Z,8
2023-03-27T19:22:36.519Z,8
2023-03-27T19:24:19.833Z,9
2023-03-27T19:26:03.211Z,9
2023-03-27T19:27:46.610Z,8
2023-03-27T19:29:30.054Z,8
2023-03-27T19:31:13.412Z,8
2023-03-27T19:32:56.809Z,8
2023-03-27T19:34:40.199Z,9
2023-03-27T19:38:06.664Z,9
2023-03-27T19:39:50.063Z,8
2023-03-27T19:41:33.469Z,10
2023-03-27T19:43:16.857Z,9
2023-03-27T19:45:00.289Z,12
2023-03-27T19:46:43.651Z,12
2023-03-27T19:48:27.051Z,11
2023-03-27T19:50:10.444Z,12
2023-03-27T19:53:36.914Z,12
2023-03-27T19:55:20.332Z,8
2023-03-27T19:57:03.735Z,8
2023-03-27T19:58:47.110Z,9
2023-03-27T20:00:30.549Z,8
2023-03-27T20:02:13.915Z,8
2023-03-27T20:03:57.322Z,8
2023-03-27T20:05:40.689Z,8
2023-03-27T20:07:24.399Z,9
2023-03-27T20:09:07.785Z,8
2023-03-27T20:10:51.169Z,8
2023-03-27T20:12:34.587Z,9
2023-03-27T20:14:18.017Z,8
2023-03-27T20:16:01.375Z,8
2023-03-27T20:17:44.775Z,8
2023-03-27T20:19:28.172Z,9
2023-03-27T20:22:54.652Z,9
2023-03-27T20:24:38.041Z,8
2023-03-27T20:26:21.434Z,8
2023-03-27T20:28:04.840Z,8
2023-03-27T20:29:48.275Z,9
2023-03-27T20:31:31.680Z,8
2023-03-27T20:33:15.018Z,9
2023-03-27T20:36:41.548Z,8
2023-03-27T20:38:24.930Z,8
2023-03-27T20:40:08.303Z,8
2023-03-27T20:41:51.720Z,8
2023-03-27T20:43:35.213Z,8
2023-03-27T20:45:18.475Z,9
2023-03-27T20:47:01.895Z,8
2023-03-27T20:48:45.296Z,8
2023-03-27T20:52:11.800Z,9
2023-03-27T20:53:55.138Z,8
2023-03-27T20:55:38.536Z,9
2023-03-27T20:57:22.013Z,8
2023-03-27T20:59:05.349Z,9
2023-03-27T21:00:48.731Z,9
2023-03-27T21:02:32.163Z,9
2023-03-27T21:07:41.389Z,8
2023-03-27T21:09:24.776Z,8
2023-03-27T21:11:08.250Z,8
2023-03-27T21:12:51.574Z,9
2023-03-27T21:14:34.949Z,9
2023-03-27T21:16:18.347Z,8
2023-03-27T21:18:01.762Z,8
2023-03-27T21:19:45.146Z,8
2023-03-27T21:21:28.864Z,8
2023-03-27T21:23:12.277Z,8
2023-03-27T21:24:55.653Z,8
2023-03-27T21:26:39.051Z,8
2023-03-27T21:28:22.425Z,8
2023-03-27T21:30:05.843Z,8
2023-03-27T21:31:49.286Z,8
2023-03-27T21:33:32.682Z,8
2023-03-27T21:38:41.913Z,8
2023-03-27T21:40:25.270Z,8
2023-03-27T21:42:08.646Z,9
2023-03-27T21:43:52.090Z,8
2023-03-27T21:45:35.456Z,8
2023-03-27T21:47:18.867Z,8
2023-03-27T21:49:02.283Z,9
2023-03-27T21:50:45.711Z,9
2023-03-27T21:54:12.152Z,9
2023-03-27T21:55:55.633Z,8
2023-03-27T21:57:38.896Z,8
2023-03-27T21:59:22.301Z,8
2023-03-27T22:01:05.694Z,8
2023-03-27T22:02:49.092Z,8
2023-03-27T22:04:32.484Z,9
2023-03-27T22:06:15.905Z,9
2023-03-27T22:09:42.363Z,9
2023-03-27T22:11:25.842Z,8
2023-03-27T22:13:09.149Z,9
2023-03-27T22:14:52.559Z,8
2023-03-27T22:16:36.018Z,8
2023-03-27T22:18:19.342Z,8
2023-03-27T22:20:02.769Z,9
2023-03-27T22:21:46.120Z,9
2023-03-27T22:25:12.608Z,8
2023-03-27T22:26:56.008Z,7
2023-03-27T22:28:39.395Z,9
2023-03-27T22:30:22.807Z,8
2023-03-27T22:32:06.201Z,9
2023-03-27T22:33:49.605Z,9
2023-03-27T22:35:32.990Z,8
2023-03-27T22:37:16.419Z,8
2023-03-27T22:40:42.847Z,8
2023-03-27T22:42:26.303Z,9
2023-03-27T22:44:09.656Z,8
2023-03-27T22:45:53.052Z,8
2023-03-27T22:47:36.510Z,9
2023-03-27T22:49:19.848Z,10
2023-03-27T22:51:03.224Z,9
2023-03-27T22:52:46.633Z,9
2023-03-27T22:57:55.870Z,8
2023-03-27T22:59:39.338Z,8
2023-03-27T23:01:22.649Z,7
2023-03-27T23:03:06.057Z,9
2023-03-27T23:04:49.448Z,8
2023-03-27T23:06:32.909Z,8
2023-03-27T23:08:16.283Z,8
2023-03-27T23:09:59.650Z,9
2023-03-27T23:13:26.109Z,8
2023-03-27T23:15:09.511Z,1
2023-03-27T23:16:52.914Z,1
2023-03-27T23:18:36.315Z,1
2023-03-27T23:20:19.708Z,1
2023-03-27T23:22:03.100Z,1
2023-03-27T23:23:46.535Z,1
2023-03-27T23:25:29.898Z,1
2023-03-27T23:27:13.605Z,2
2023-03-27T23:28:57.000Z,1
2023-03-27T23:30:40.389Z,1
2023-03-27T23:32:23.784Z,1
2023-03-27T23:34:07.165Z,1
2023-03-27T23:35:50.584Z,1
2023-03-27T23:37:33.960Z,1
2023-03-27T23:39:17.372Z,1
2023-03-27T23:42:43.900Z,1
2023-03-27T23:44:27.224Z,1
2023-03-27T23:46:10.626Z,1
2023-03-27T23:47:54.033Z,1
2023-03-27T23:49:37.415Z,1
2023-03-27T23:51:20.849Z,2
2023-03-27T23:53:04.208Z,1
2023-03-27T23:58:13.465Z,1
2023-03-27T23:59:56.864Z,1
